createdAt,value
2019-04-27T00:01:13.776Z,2.97
2019-04-27T00:03:54.356Z,3.20
2019-04-27T00:06:26.490Z,2.73
2019-04-27T00:09:14.489Z,4.17
2019-04-27T00:11:45.736Z,4.40
2019-04-27T00:14:18.125Z,2.60
2019-04-27T00:16:50.909Z,4.23
2019-04-27T00:19:27.342Z,3.17
2019-04-27T00:22:08.997Z,4.20
2019-04-27T00:24:38.519Z,3.57
2019-04-27T00:27:08.147Z,3.57
2019-04-27T00:29:37.720Z,3.03
2019-04-27T00:32:07.390Z,8.17
2019-04-27T00:34:37.254Z,3.80
2019-04-27T00:37:06.848Z,3.13
2019-04-27T00:39:40.664Z,2.70
2019-04-27T00:42:10.209Z,2.77
2019-04-27T00:44:39.762Z,4.17
2019-04-27T00:47:09.298Z,4.20
2019-04-27T00:49:39.081Z,3.03
2019-04-27T00:52:08.622Z,5.93
2019-04-27T00:54:38.138Z,2.63
2019-04-27T00:57:09.315Z,3.63
2019-04-27T00:59:56.326Z,4.13
2019-04-27T01:02:28.452Z,4.87
2019-04-27T01:04:58.315Z,4.13
2019-04-27T01:07:28.014Z,2.90
2019-04-27T01:09:57.591Z,2.37
2019-04-27T01:12:27.173Z,1.77
2019-04-27T01:14:56.745Z,4.43
2019-04-27T01:17:26.282Z,2.63
2019-04-27T01:19:55.889Z,2.47
2019-04-27T01:22:25.595Z,3.03
2019-04-27T01:24:55.139Z,2.47
2019-04-27T01:27:29.128Z,4.97
2019-04-27T01:29:59.106Z,2.63
2019-04-27T01:32:29.251Z,2.07
2019-04-27T01:34:59.203Z,3.07
2019-04-27T01:37:29.205Z,2.87
2019-04-27T01:39:59.099Z,2.90
2019-04-27T01:42:29.478Z,5.40
2019-04-27T01:44:59.758Z,2.60
2019-04-27T01:47:29.306Z,3.33
2019-04-27T01:49:58.828Z,4.43
2019-04-27T01:52:29.190Z,2.40
2019-04-27T01:54:59.652Z,3.30
2019-04-27T01:57:29.548Z,4.00
2019-04-27T01:59:59.529Z,4.00
2019-04-27T02:02:30.916Z,3.27
2019-04-27T02:05:02.994Z,3.37
2019-04-27T02:07:32.672Z,4.50
2019-04-27T02:10:02.345Z,4.17
2019-04-27T02:12:31.900Z,1.90
2019-04-27T02:15:01.444Z,2.40
2019-04-27T02:17:30.968Z,2.63
2019-04-27T02:20:00.482Z,1.93
2019-04-27T02:22:30.038Z,2.13
2019-04-27T02:24:59.591Z,4.00
2019-04-27T02:27:30.769Z,3.80
2019-04-27T02:30:07.626Z,1.87
2019-04-27T02:32:39.688Z,2.07
2019-04-27T02:35:11.232Z,5.73
2019-04-27T02:37:40.822Z,1.90
2019-04-27T02:40:42.348Z,2.40
2019-04-27T02:43:10.686Z,2.50
2019-04-27T02:45:40.431Z,1.97
2019-04-27T02:48:10.115Z,1.97
2019-04-27T02:50:40.116Z,2.27
2019-04-27T02:53:11.017Z,1.70
2019-04-27T02:55:41.401Z,2.40
2019-04-27T02:58:12.999Z,2.53
2019-04-27T03:00:42.304Z,1.63
2019-04-27T03:03:13.816Z,2.33
2019-04-27T03:05:43.839Z,1.57
2019-04-27T03:08:13.629Z,2.53
2019-04-27T03:10:43.175Z,3.40
2019-04-27T03:13:14.327Z,2.47
2019-04-27T03:16:01.282Z,4.13
2019-04-27T03:18:32.858Z,2.10
2019-04-27T03:21:13.389Z,1.33
2019-04-27T03:23:43.071Z,1.93
2019-04-27T03:26:14.261Z,1.90
2019-04-27T03:28:43.936Z,3.00
2019-04-27T03:31:14.330Z,2.17
2019-04-27T03:33:44.315Z,4.13
2019-04-27T03:36:14.218Z,2.33
2019-04-27T03:38:43.996Z,2.20
2019-04-27T03:41:13.809Z,1.80
2019-04-27T03:43:43.455Z,2.93
2019-04-27T03:46:12.979Z,3.13
2019-04-27T03:48:42.589Z,2.47
2019-04-27T03:51:16.410Z,1.93
2019-04-27T03:54:02.927Z,1.30
2019-04-27T03:56:39.377Z,1.97
2019-04-27T03:59:10.339Z,1.37
2019-04-27T04:01:41.631Z,2.57
2019-04-27T04:04:11.235Z,2.50
2019-04-27T04:06:40.891Z,1.83
2019-04-27T04:09:10.851Z,2.07
2019-04-27T04:11:44.998Z,2.00
2019-04-27T04:14:21.777Z,3.37
2019-04-27T04:16:52.968Z,1.30
2019-04-27T04:19:22.685Z,2.43
2019-04-27T04:21:52.272Z,3.10
2019-04-27T04:24:21.804Z,1.77
2019-04-27T04:26:51.432Z,2.27
2019-04-27T04:29:21.224Z,2.27
2019-04-27T04:31:51.147Z,2.40
2019-04-27T04:34:20.760Z,1.87
2019-04-27T04:36:50.577Z,1.90
2019-04-27T04:39:20.246Z,1.83
2019-04-27T04:42:09.955Z,3.77
2019-04-27T04:44:41.229Z,9.50
2019-04-27T04:47:13.175Z,2.83
2019-04-27T04:49:42.887Z,2.70
2019-04-27T04:52:12.485Z,5.50
2019-04-27T04:54:42.239Z,5.20
2019-04-27T04:57:11.859Z,2.20
2019-04-27T04:59:43.766Z,3.57
2019-04-27T05:02:12.666Z,3.70
2019-04-27T05:04:42.272Z,1.73
2019-04-27T05:07:11.827Z,1.40
2019-04-27T05:09:41.376Z,2.40
2019-04-27T05:12:11.016Z,2.90
2019-04-27T05:14:40.609Z,1.60
2019-04-27T05:17:10.367Z,1.57
2019-04-27T05:19:40.467Z,3.03
2019-04-27T05:22:10.100Z,2.67
2019-04-27T05:24:39.732Z,1.17
2019-04-27T05:27:09.390Z,2.03
2019-04-27T05:29:39.084Z,2.53
2019-04-27T05:32:09.242Z,4.07
2019-04-27T05:34:39.470Z,1.47
2019-04-27T05:37:09.182Z,3.90
2019-04-27T05:39:39.076Z,3.23
2019-04-27T05:42:12.445Z,3.53
2019-04-27T05:45:02.028Z,3.63
2019-04-27T05:47:48.464Z,4.63
2019-04-27T05:50:20.128Z,1.93
2019-04-27T05:52:49.692Z,3.53
2019-04-27T05:55:19.424Z,1.57
2019-04-27T05:57:49.149Z,1.43
2019-04-27T06:00:21.023Z,3.20
2019-04-27T06:02:50.720Z,2.07
2019-04-27T06:05:22.727Z,1.67
2019-04-27T06:07:52.734Z,2.50
2019-04-27T06:10:22.261Z,1.47
2019-04-27T06:12:51.826Z,3.63
2019-04-27T06:15:21.365Z,2.10
2019-04-27T06:17:51.025Z,2.30
2019-04-27T06:20:20.561Z,4.63
2019-04-27T06:22:50.613Z,3.00
2019-04-27T06:25:21.645Z,1.87
2019-04-27T06:27:51.433Z,3.47
2019-04-27T06:30:21.161Z,1.53
2019-04-27T06:32:50.811Z,4.53
2019-04-27T06:35:21.651Z,1.90
2019-04-27T06:37:51.263Z,3.50
2019-04-27T06:40:20.812Z,5.67
2019-04-27T06:42:50.329Z,2.50
2019-04-27T06:45:19.997Z,4.10
2019-04-27T06:47:51.309Z,3.37
2019-04-27T06:50:21.027Z,4.00
2019-04-27T06:52:50.638Z,4.10
2019-04-27T06:55:20.352Z,1.93
2019-04-27T06:57:49.905Z,3.30
2019-04-27T07:00:19.579Z,2.87
2019-04-27T07:02:49.492Z,3.43
2019-04-27T07:05:20.421Z,4.67
2019-04-27T07:07:50.480Z,3.10
2019-04-27T07:10:20.095Z,2.30
2019-04-27T07:12:50.187Z,7.27
2019-04-27T07:15:20.483Z,3.63
2019-04-27T07:17:50.223Z,3.63
2019-04-27T07:20:19.759Z,5.30
2019-04-27T07:22:49.728Z,3.47
2019-04-27T07:25:19.420Z,2.57
2019-04-27T07:27:49.488Z,2.87
2019-04-27T07:30:19.680Z,2.30
2019-04-27T07:32:49.206Z,8.00
2019-04-27T07:35:19.681Z,3.03
2019-04-27T07:37:49.494Z,3.87
2019-04-27T07:40:19.029Z,7.00
2019-04-27T07:42:50.226Z,4.13
2019-04-27T07:45:26.853Z,5.97
2019-04-27T07:47:56.404Z,2.30
2019-04-27T07:50:25.946Z,4.97
2019-04-27T07:52:55.482Z,4.50
2019-04-27T07:55:25.062Z,4.87
2019-04-27T07:57:54.673Z,4.03
2019-04-27T08:00:24.353Z,5.43
2019-04-27T08:02:54.283Z,5.50
2019-04-27T08:05:23.814Z,3.23
2019-04-27T08:07:53.361Z,3.10
2019-04-27T08:10:22.911Z,6.97
2019-04-27T08:12:52.439Z,4.27
2019-04-27T08:15:21.990Z,5.53
2019-04-27T08:17:51.511Z,4.23
2019-04-27T08:20:21.345Z,3.03
2019-04-27T08:22:50.883Z,3.40
2019-04-27T08:25:22.064Z,2.83
2019-04-27T08:28:05.166Z,3.30
2019-04-27T08:30:42.888Z,3.83
2019-04-27T08:33:14.255Z,2.03
2019-04-27T08:35:44.006Z,3.10
2019-04-27T08:38:13.614Z,1.90
2019-04-27T08:40:43.146Z,2.97
2019-04-27T08:43:12.692Z,2.83
2019-04-27T08:45:42.313Z,3.10
2019-04-27T08:48:11.902Z,3.07
2019-04-27T08:50:42.137Z,6.73
2019-04-27T08:53:11.855Z,3.00
2019-04-27T08:55:41.429Z,2.87
2019-04-27T08:58:10.953Z,3.53
2019-04-27T09:00:40.513Z,4.07
2019-04-27T09:03:10.065Z,4.00
2019-04-27T09:05:39.601Z,4.73
2019-04-27T09:08:18.977Z,3.37
2019-04-27T09:10:50.547Z,3.93
2019-04-27T09:13:24.395Z,4.60
2019-04-27T09:15:53.741Z,4.17
2019-04-27T09:18:24.939Z,3.67
2019-04-27T09:20:56.108Z,3.23
2019-04-27T09:23:25.806Z,3.97
2019-04-27T09:25:55.346Z,3.67
2019-04-27T09:28:25.063Z,2.33
2019-04-27T09:30:54.634Z,5.90
2019-04-27T09:33:24.475Z,2.97
2019-04-27T09:35:54.024Z,3.53
2019-04-27T09:38:23.839Z,3.17
2019-04-27T09:40:53.408Z,3.93
2019-04-27T09:43:23.023Z,2.63
2019-04-27T09:45:52.550Z,3.77
2019-04-27T09:48:22.156Z,2.40
2019-04-27T09:50:51.945Z,4.87
2019-04-27T09:53:21.463Z,3.10
2019-04-27T09:55:51.021Z,3.10
2019-04-27T09:58:20.574Z,2.57
2019-04-27T10:00:50.117Z,3.17
2019-04-27T10:03:19.978Z,2.50
2019-04-27T10:05:49.797Z,3.10
2019-04-27T10:08:19.428Z,2.20
2019-04-27T10:10:49.017Z,2.13
2019-04-27T10:13:18.827Z,2.90
2019-04-27T10:15:48.376Z,2.57
2019-04-27T10:18:18.163Z,4.73
2019-04-27T10:20:59.172Z,2.40
2019-04-27T10:23:19.397Z,2.47
2019-04-27T10:25:48.899Z,3.33
2019-04-27T10:28:18.421Z,2.30
2019-04-27T10:30:48.063Z,2.70
2019-04-27T10:33:18.407Z,1.87
2019-04-27T10:35:48.041Z,2.43
2019-04-27T10:38:17.716Z,2.03
2019-04-27T10:40:47.217Z,2.00
2019-04-27T10:43:16.741Z,2.20
2019-04-27T10:45:46.569Z,2.47
2019-04-27T10:48:17.882Z,3.57
2019-04-27T10:50:47.371Z,2.50
2019-04-27T10:53:17.050Z,3.17
2019-04-27T10:55:46.663Z,1.60
2019-04-27T10:58:16.595Z,2.67
2019-04-27T11:00:58.423Z,6.13
2019-04-27T11:03:46.357Z,3.27
2019-04-27T11:06:35.701Z,1.90
2019-04-27T11:09:11.146Z,1.93
2019-04-27T11:11:43.777Z,2.73
2019-04-27T11:14:13.397Z,6.07
2019-04-27T11:16:42.928Z,5.67
2019-04-27T11:19:12.458Z,4.27
2019-04-27T11:21:41.985Z,4.43
2019-04-27T11:24:11.561Z,7.20
2019-04-27T11:26:41.108Z,5.50
2019-04-27T11:29:10.698Z,6.87
2019-04-27T11:31:42.160Z,4.80
2019-04-27T11:34:11.708Z,3.93
2019-04-27T11:36:42.896Z,4.27
2019-04-27T11:39:17.499Z,4.20
2019-04-27T11:41:46.343Z,4.47
2019-04-27T11:44:17.058Z,4.57
2019-04-27T11:46:47.478Z,4.87
2019-04-27T11:49:17.294Z,4.93
2019-04-27T11:51:46.839Z,5.13
2019-04-27T11:54:16.445Z,5.93
2019-04-27T11:56:47.208Z,5.07
2019-04-27T11:59:16.811Z,2.53
2019-04-27T12:01:46.338Z,5.67
2019-04-27T12:04:16.201Z,4.80
2019-04-27T12:06:46.294Z,6.90
2019-04-27T12:09:15.854Z,5.40
2019-04-27T12:11:45.404Z,3.27
2019-04-27T12:14:14.931Z,4.03
2019-04-27T12:16:46.077Z,5.83
2019-04-27T12:19:16.392Z,3.87
2019-04-27T12:21:46.428Z,7.03
2019-04-27T12:24:17.819Z,5.83
2019-04-27T12:27:01.413Z,8.17
2019-04-27T12:29:48.873Z,5.63
2019-04-27T12:32:18.884Z,6.80
2019-04-27T12:34:48.444Z,4.77
2019-04-27T12:37:18.018Z,5.00
2019-04-27T12:39:47.537Z,3.93
2019-04-27T12:42:17.197Z,6.53
2019-04-27T12:44:46.716Z,4.57
2019-04-27T12:47:16.465Z,5.00
2019-04-27T12:49:46.494Z,3.60
2019-04-27T12:52:16.012Z,6.53
2019-04-27T12:54:47.199Z,6.03
2019-04-27T12:57:21.331Z,6.10
2019-04-27T12:59:57.948Z,4.00
2019-04-27T13:02:35.113Z,4.37
2019-04-27T13:05:07.061Z,5.60
2019-04-27T13:07:36.610Z,7.00
2019-04-27T13:10:09.419Z,4.50
2019-04-27T13:12:48.313Z,3.67
2019-04-27T13:15:18.403Z,5.93
2019-04-27T13:17:48.026Z,5.50
2019-04-27T13:20:18.969Z,6.10
2019-04-27T13:22:48.555Z,4.80
2019-04-27T13:25:18.190Z,3.93
2019-04-27T13:27:48.141Z,5.73
2019-04-27T13:30:19.647Z,5.73
2019-04-27T13:32:49.187Z,3.40
2019-04-27T13:35:18.791Z,3.40
2019-04-27T13:37:48.331Z,7.10
2019-04-27T13:40:20.137Z,4.10
2019-04-27T13:42:57.637Z,3.67
2019-04-27T13:45:38.183Z,4.73
2019-04-27T13:48:16.866Z,2.70
2019-04-27T13:50:50.950Z,4.07
2019-04-27T13:53:20.657Z,5.53
2019-04-27T13:55:50.236Z,2.80
2019-04-27T13:58:19.760Z,5.83
2019-04-27T14:00:49.295Z,3.90
2019-04-27T14:03:21.012Z,5.97
2019-04-27T14:05:50.438Z,5.57
2019-04-27T14:08:20.002Z,3.17
2019-04-27T14:10:51.331Z,4.47
2019-04-27T14:13:20.974Z,4.63
2019-04-27T14:15:50.650Z,5.40
2019-04-27T14:18:20.128Z,3.07
2019-04-27T14:20:49.692Z,4.73
2019-04-27T14:23:28.339Z,2.93
2019-04-27T14:25:58.514Z,4.50
2019-04-27T14:28:29.193Z,5.73
2019-04-27T14:30:59.118Z,6.37
2019-04-27T14:33:28.739Z,3.17
2019-04-27T14:35:59.413Z,4.30
2019-04-27T14:38:29.171Z,4.00
2019-04-27T14:40:59.344Z,4.40
2019-04-27T14:43:28.946Z,4.23
2019-04-27T14:45:58.554Z,2.90
2019-04-27T14:48:29.483Z,5.33
2019-04-27T14:50:59.327Z,6.27
2019-04-27T14:53:29.107Z,5.73
2019-04-27T14:55:58.720Z,3.87
2019-04-27T14:58:28.506Z,4.40
2019-04-27T15:00:58.648Z,5.33
2019-04-27T15:03:28.445Z,3.13
2019-04-27T15:05:57.967Z,7.87
2019-04-27T15:08:27.498Z,5.17
2019-04-27T15:10:57.023Z,3.73
2019-04-27T15:13:26.575Z,5.03
2019-04-27T15:15:56.097Z,4.80
2019-04-27T15:18:29.599Z,4.93
2019-04-27T15:21:02.397Z,5.80
2019-04-27T15:23:30.876Z,5.77
2019-04-27T15:26:01.498Z,4.60
2019-04-27T15:28:32.649Z,9.43
2019-04-27T15:31:01.940Z,5.03
2019-04-27T15:33:54.586Z,3.10
2019-04-27T15:36:39.885Z,5.63
2019-04-27T15:39:30.485Z,2.83
2019-04-27T15:42:08.302Z,3.10
2019-04-27T15:44:41.070Z,2.73
2019-04-27T15:47:11.950Z,4.13
2019-04-27T15:49:45.050Z,1.57
2019-04-27T15:52:11.310Z,2.20
2019-04-27T15:54:40.846Z,3.53
2019-04-27T15:57:13.688Z,3.80
2019-04-27T15:59:41.646Z,2.47
2019-04-27T16:02:15.275Z,4.83
2019-04-27T16:04:44.422Z,6.30
2019-04-27T16:07:18.160Z,6.40
2019-04-27T16:09:45.601Z,5.73
2019-04-27T16:12:15.124Z,1.50
2019-04-27T16:14:44.664Z,1.70
2019-04-27T16:17:14.193Z,2.77
2019-04-27T16:19:48.931Z,1.93
2019-04-27T16:22:15.017Z,3.27
2019-04-27T16:24:44.554Z,1.50
2019-04-27T16:27:14.097Z,2.30
2019-04-27T16:29:43.642Z,3.63
2019-04-27T16:32:13.181Z,5.80
2019-04-27T16:34:43.673Z,1.60
2019-04-27T16:37:18.977Z,5.23
2019-04-27T16:39:47.885Z,5.67
2019-04-27T16:42:18.600Z,4.47
2019-04-27T16:44:51.464Z,3.40
2019-04-27T16:47:24.343Z,5.27
2019-04-27T16:49:50.913Z,6.27
2019-04-27T16:52:20.459Z,6.70
2019-04-27T16:54:57.016Z,5.23
2019-04-27T16:57:22.976Z,3.13
2019-04-27T16:59:57.514Z,4.50
2019-04-27T17:02:25.337Z,3.97
2019-04-27T17:04:55.747Z,4.27
2019-04-27T17:07:30.140Z,3.07
2019-04-27T17:09:59.441Z,3.77
2019-04-27T17:12:29.910Z,3.30
2019-04-27T17:15:05.843Z,4.27
2019-04-27T17:17:34.664Z,3.83
2019-04-27T17:20:05.002Z,3.17
2019-04-27T17:22:34.516Z,4.60
2019-04-27T17:25:05.684Z,4.20
2019-04-27T17:27:39.515Z,5.30
2019-04-27T17:30:10.546Z,4.33
2019-04-27T17:32:44.653Z,5.23
2019-04-27T17:35:15.093Z,3.07
2019-04-27T17:37:44.788Z,4.93
2019-04-27T17:40:15.485Z,3.30
2019-04-27T17:42:45.250Z,5.17
2019-04-27T17:45:15.148Z,4.90
2019-04-27T17:47:44.672Z,8.97
2019-04-27T17:50:18.489Z,7.37
2019-04-27T17:52:49.771Z,5.73
2019-04-27T17:55:17.840Z,4.37
2019-04-27T17:57:49.057Z,4.17
2019-04-27T18:00:19.756Z,6.70
2019-04-27T18:02:49.324Z,3.53
2019-04-27T18:05:18.880Z,4.23
2019-04-27T18:07:48.710Z,8.03
2019-04-27T18:10:23.866Z,9.33
2019-04-27T18:12:51.335Z,6.87
2019-04-27T18:15:21.111Z,4.27
2019-04-27T18:17:52.431Z,7.97
2019-04-27T18:20:29.095Z,6.77
2019-04-27T18:23:03.468Z,6.40
2019-04-27T18:25:35.633Z,6.67
2019-04-27T18:28:14.727Z,7.93
2019-04-27T18:30:46.740Z,8.47
2019-04-27T18:33:18.118Z,7.10
2019-04-27T18:35:49.067Z,9.43
2019-04-27T18:38:18.829Z,5.70
2019-04-27T18:40:48.807Z,5.00
2019-04-27T18:43:18.827Z,4.80
2019-04-27T18:45:48.697Z,4.63
2019-04-27T18:48:31.872Z,5.57
2019-04-27T18:51:08.574Z,7.50
2019-04-27T18:53:38.124Z,2.73
2019-04-27T18:56:10.332Z,5.77
2019-04-27T18:58:39.048Z,5.50
2019-04-27T19:01:08.699Z,6.00
2019-04-27T19:03:39.130Z,6.60
2019-04-27T19:06:08.772Z,6.60
2019-04-27T19:08:38.781Z,5.37
2019-04-27T19:11:09.306Z,6.03
2019-04-27T19:13:40.107Z,6.07
2019-04-27T19:16:09.807Z,6.20
2019-04-27T19:18:39.885Z,8.57
2019-04-27T19:21:09.607Z,6.53
2019-04-27T19:23:40.230Z,6.63
2019-04-27T19:26:10.028Z,6.23
2019-04-27T19:28:58.424Z,7.13
2019-04-27T19:31:32.581Z,9.63
2019-04-27T19:34:02.089Z,5.40
2019-04-27T19:36:31.611Z,4.30
2019-04-27T19:39:01.239Z,4.67
2019-04-27T19:41:30.814Z,5.03
2019-04-27T19:44:00.335Z,4.93
2019-04-27T19:46:30.558Z,7.53
2019-04-27T19:49:00.349Z,7.30
2019-04-27T19:51:29.896Z,4.97
2019-04-27T19:53:59.402Z,6.17
2019-04-27T19:56:29.175Z,7.47
2019-04-27T19:59:00.342Z,6.00
2019-04-27T20:01:31.589Z,6.83
2019-04-27T20:04:00.882Z,6.87
2019-04-27T20:06:30.489Z,8.17
2019-04-27T20:09:04.427Z,8.13
2019-04-27T20:11:34.047Z,8.63
2019-04-27T20:14:03.632Z,7.57
2019-04-27T20:16:33.172Z,4.50
2019-04-27T20:19:03.051Z,5.10
2019-04-27T20:21:32.553Z,4.50
2019-04-27T20:24:02.085Z,5.87
2019-04-27T20:26:31.608Z,7.40
2019-04-27T20:29:01.551Z,4.73
2019-04-27T20:31:32.582Z,6.70
2019-04-27T20:34:02.551Z,7.07
2019-04-27T20:36:32.421Z,7.97
2019-04-27T20:39:02.044Z,7.63
2019-04-27T20:41:31.944Z,7.53
2019-04-27T20:44:02.366Z,7.20
2019-04-27T20:46:32.063Z,6.90
2019-04-27T20:49:03.229Z,7.07
2019-04-27T20:51:43.425Z,7.00
2019-04-27T20:54:11.682Z,8.70
2019-04-27T20:56:41.226Z,9.97
2019-04-27T20:59:10.908Z,12.73
2019-04-27T21:01:40.469Z,7.83
2019-04-27T21:04:10.976Z,10.40
2019-04-27T21:06:57.264Z,9.47
2019-04-27T21:09:26.816Z,10.47
2019-04-27T21:11:56.592Z,9.87
2019-04-27T21:14:26.122Z,10.43
2019-04-27T21:16:55.663Z,7.23
2019-04-27T21:19:25.201Z,8.50
2019-04-27T21:21:54.747Z,10.37
2019-04-27T21:24:24.252Z,9.07
2019-04-27T21:26:53.797Z,7.93
2019-04-27T21:29:23.369Z,8.83
2019-04-27T21:31:52.890Z,10.37
2019-04-27T21:34:22.505Z,13.73
2019-04-27T21:36:52.125Z,7.67
2019-04-27T21:39:21.808Z,11.03
2019-04-27T21:41:51.872Z,11.67
2019-04-27T21:44:21.916Z,13.07
2019-04-27T21:46:52.021Z,10.93
2019-04-27T21:49:23.043Z,11.37
2019-04-27T21:52:03.049Z,10.70
2019-04-27T21:54:34.402Z,10.17
2019-04-27T21:57:04.108Z,10.47
2019-04-27T21:59:33.653Z,6.60
2019-04-27T22:02:04.919Z,10.00
2019-04-27T22:04:34.448Z,8.73
2019-04-27T22:07:03.993Z,11.53
2019-04-27T22:09:33.549Z,15.13
2019-04-27T22:12:03.248Z,10.83
2019-04-27T22:14:32.782Z,12.17
2019-04-27T22:17:02.550Z,10.07
2019-04-27T22:19:32.091Z,9.73
2019-04-27T22:22:03.253Z,9.37
2019-04-27T22:24:34.432Z,9.63
2019-04-27T22:27:04.032Z,9.03
2019-04-27T22:29:33.622Z,10.40
2019-04-27T22:32:03.218Z,10.73
2019-04-27T22:34:32.818Z,8.57
2019-04-27T22:37:02.800Z,9.87
2019-04-27T22:39:36.951Z,8.13
2019-04-27T22:42:12.107Z,10.80
2019-04-27T22:44:44.202Z,11.60
2019-04-27T22:47:13.878Z,9.20
2019-04-27T22:49:43.478Z,14.80
2019-04-27T22:52:13.076Z,11.83
2019-04-27T22:54:42.615Z,9.10
2019-04-27T22:57:13.784Z,11.93
2019-04-27T22:59:50.708Z,11.97
2019-04-27T23:02:29.305Z,12.17
2019-04-27T23:05:01.956Z,8.87
2019-04-27T23:07:31.784Z,11.13
2019-04-27T23:10:01.782Z,10.10
2019-04-27T23:12:31.808Z,10.13
2019-04-27T23:15:01.484Z,11.83
2019-04-27T23:17:35.095Z,9.20
2019-04-27T23:20:06.625Z,12.40
2019-04-27T23:22:36.160Z,12.60
2019-04-27T23:25:08.772Z,10.33
2019-04-27T23:27:38.341Z,10.63
2019-04-27T23:30:08.580Z,11.10
2019-04-27T23:32:45.285Z,10.20
2019-04-27T23:35:14.999Z,6.63
2019-04-27T23:37:44.690Z,7.20
2019-04-27T23:40:14.710Z,8.70
2019-04-27T23:42:44.261Z,9.47
2019-04-27T23:45:14.306Z,9.77
2019-04-27T23:47:43.843Z,11.87
2019-04-27T23:50:14.203Z,10.40
2019-04-27T23:53:03.754Z,8.20
2019-04-27T23:55:34.915Z,8.80
2019-04-27T23:58:04.616Z,8.03
